createdAt,value
2018-05-21T00:00:30.261Z,17.10
2018-05-21T00:02:57.986Z,17.10
2018-05-21T00:05:28.335Z,17.00
2018-05-21T00:07:56.039Z,17.00
2018-05-21T00:10:23.722Z,17.00
2018-05-21T00:12:51.421Z,17.00
2018-05-21T00:15:19.099Z,17.00
2018-05-21T00:17:46.809Z,17.00
2018-05-21T00:20:14.565Z,17.00
2018-05-21T00:22:42.223Z,17.00
2018-05-21T00:25:09.991Z,17.00
2018-05-21T00:27:37.654Z,16.90
2018-05-21T00:30:05.350Z,16.90
2018-05-21T00:32:33.810Z,17.00
2018-05-21T00:35:01.563Z,17.00
2018-05-21T00:37:29.223Z,16.90
2018-05-21T00:39:56.989Z,16.90
2018-05-21T00:42:24.659Z,16.90
2018-05-21T00:44:52.359Z,16.90
2018-05-21T00:47:20.047Z,16.90
2018-05-21T00:49:47.748Z,16.80
2018-05-21T00:52:15.433Z,16.80
2018-05-21T00:54:49.855Z,16.70
2018-05-21T00:57:18.312Z,16.70
2018-05-21T00:59:46.010Z,16.70
2018-05-21T01:02:13.687Z,16.70
2018-05-21T01:04:41.386Z,16.70
2018-05-21T01:07:09.070Z,16.70
2018-05-21T01:09:36.780Z,16.60
2018-05-21T01:12:04.467Z,16.60
2018-05-21T01:14:32.158Z,16.60
2018-05-21T01:16:59.854Z,16.60
2018-05-21T01:19:27.573Z,16.60
2018-05-21T01:21:55.261Z,16.50
2018-05-21T01:24:23.819Z,16.50
2018-05-21T01:26:51.473Z,16.50
2018-05-21T01:29:19.170Z,16.50
2018-05-21T01:31:47.638Z,16.40
2018-05-21T01:34:15.342Z,16.40
2018-05-21T01:36:43.031Z,16.30
2018-05-21T01:39:10.817Z,16.30
2018-05-21T01:41:38.461Z,16.30
2018-05-21T01:44:06.165Z,16.30
2018-05-21T01:46:34.605Z,16.20
2018-05-21T01:49:02.308Z,16.20
2018-05-21T01:51:30.769Z,16.30
2018-05-21T01:53:58.472Z,16.20
2018-05-21T01:56:26.171Z,16.20
2018-05-21T01:58:53.959Z,16.20
2018-05-21T02:01:21.622Z,16.20
2018-05-21T02:03:49.386Z,16.20
2018-05-21T02:06:17.044Z,16.10
2018-05-21T02:08:44.808Z,16.20
2018-05-21T02:11:12.467Z,16.20
2018-05-21T02:13:40.161Z,16.10
2018-05-21T02:16:08.611Z,16.10
2018-05-21T02:18:36.314Z,16.10
2018-05-21T02:21:04.790Z,16.10
2018-05-21T02:23:33.346Z,16.10
2018-05-21T02:26:00.999Z,16.10
2018-05-21T02:28:28.690Z,16.00
2018-05-21T02:30:57.578Z,16.00
2018-05-21T02:33:25.286Z,16.00
2018-05-21T02:35:52.962Z,16.00
2018-05-21T02:38:20.643Z,15.90
2018-05-21T02:40:48.343Z,16.00
2018-05-21T02:43:16.797Z,16.00
2018-05-21T02:45:44.489Z,16.00
2018-05-21T02:48:12.941Z,15.90
2018-05-21T02:50:40.653Z,15.90
2018-05-21T02:53:08.333Z,16.00
2018-05-21T02:55:36.802Z,15.90
2018-05-21T02:58:04.483Z,15.90
2018-05-21T03:00:32.192Z,15.90
2018-05-21T03:03:00.641Z,15.90
2018-05-21T03:05:28.341Z,15.90
2018-05-21T03:07:56.785Z,15.80
2018-05-21T03:10:24.489Z,15.80
2018-05-21T03:12:53.045Z,15.80
2018-05-21T03:15:20.701Z,15.80
2018-05-21T03:17:48.407Z,15.80
2018-05-21T03:20:16.886Z,15.80
2018-05-21T03:22:45.334Z,15.80
2018-05-21T03:25:13.044Z,15.70
2018-05-21T03:27:40.764Z,15.80
2018-05-21T03:30:08.463Z,15.80
2018-05-21T03:32:37.006Z,15.70
2018-05-21T03:35:04.729Z,15.70
2018-05-21T03:37:32.393Z,15.80
2018-05-21T03:40:00.085Z,15.80
2018-05-21T03:42:27.781Z,15.80
2018-05-21T03:44:56.250Z,15.90
2018-05-21T03:47:23.947Z,15.90
2018-05-21T03:49:51.643Z,15.90
2018-05-21T03:52:19.334Z,16.00
2018-05-21T03:54:47.385Z,15.90
2018-05-21T03:57:15.064Z,15.90
2018-05-21T03:59:49.381Z,16.00
2018-05-21T04:02:22.911Z,15.90
2018-05-21T04:04:51.413Z,16.00
2018-05-21T04:07:19.106Z,16.00
2018-05-21T04:09:46.790Z,16.00
2018-05-21T04:12:15.279Z,16.00
2018-05-21T04:14:42.902Z,16.00
2018-05-21T04:17:10.599Z,16.00
2018-05-21T04:19:38.286Z,16.10
2018-05-21T04:22:06.840Z,16.20
2018-05-21T04:24:34.494Z,16.10
2018-05-21T04:27:02.200Z,16.20
2018-05-21T04:29:30.646Z,16.30
2018-05-21T04:31:58.354Z,16.20
2018-05-21T04:34:26.050Z,16.40
2018-05-21T04:36:53.779Z,16.40
2018-05-21T04:39:21.455Z,16.60
2018-05-21T04:41:49.153Z,16.70
2018-05-21T04:44:16.834Z,16.90
2018-05-21T04:46:44.541Z,17.10
2018-05-21T04:49:12.233Z,17.30
2018-05-21T04:51:39.936Z,17.60
2018-05-21T04:54:08.380Z,18.10
2018-05-21T04:56:36.074Z,18.00
2018-05-21T04:59:03.762Z,18.30
2018-05-21T05:01:31.461Z,18.60
2018-05-21T05:03:59.158Z,18.80
2018-05-21T05:06:26.972Z,19.00
2018-05-21T05:08:54.658Z,19.20
2018-05-21T05:11:22.338Z,19.40
2018-05-21T05:13:50.034Z,19.60
2018-05-21T05:16:18.489Z,20.10
2018-05-21T05:18:46.205Z,20.10
2018-05-21T05:21:13.933Z,20.30
2018-05-21T05:23:41.565Z,20.30
2018-05-21T05:26:09.263Z,20.30
2018-05-21T05:28:37.734Z,20.20
2018-05-21T05:31:06.178Z,20.10
2018-05-21T05:33:33.879Z,20.10
2018-05-21T05:36:01.570Z,20.10
2018-05-21T05:38:30.031Z,20.20
2018-05-21T05:40:58.486Z,20.30
2018-05-21T05:43:26.253Z,20.30
2018-05-21T05:45:53.927Z,20.60
2018-05-21T05:48:21.632Z,20.90
2018-05-21T05:50:49.325Z,21.20
2018-05-21T05:53:17.043Z,21.50
2018-05-21T05:55:44.731Z,21.80
2018-05-21T05:58:12.438Z,22.00
2018-05-21T06:00:40.152Z,22.10
2018-05-21T06:03:07.875Z,22.10
2018-05-21T06:05:35.563Z,22.00
2018-05-21T06:08:03.283Z,22.00
2018-05-21T06:10:30.956Z,21.80
2018-05-21T06:12:58.643Z,21.60
2018-05-21T06:15:27.103Z,21.20
2018-05-21T06:17:54.781Z,21.20
2018-05-21T06:20:23.265Z,20.90
2018-05-21T06:22:52.331Z,20.80
2018-05-21T06:25:20.021Z,20.80
2018-05-21T06:27:48.526Z,20.60
2018-05-21T06:30:16.226Z,20.60
2018-05-21T06:32:44.007Z,20.50
2018-05-21T06:35:11.738Z,20.50
2018-05-21T06:37:39.431Z,20.40
2018-05-21T06:40:07.197Z,20.30
2018-05-21T06:42:34.894Z,20.30
2018-05-21T06:45:02.596Z,20.30
2018-05-21T06:47:31.052Z,20.30
2018-05-21T06:49:58.745Z,20.40
2018-05-21T06:52:26.436Z,20.50
2018-05-21T06:54:54.129Z,20.50
2018-05-21T06:57:22.278Z,20.70
2018-05-21T06:59:51.307Z,21.40
2018-05-21T07:02:20.290Z,21.90
2018-05-21T07:04:48.980Z,21.80
2018-05-21T07:07:17.243Z,22.30
2018-05-21T07:09:45.475Z,22.80
2018-05-21T07:12:13.792Z,23.20
2018-05-21T07:14:42.850Z,24.20
2018-05-21T07:17:11.142Z,24.20
2018-05-21T07:19:40.124Z,24.90
2018-05-21T07:22:08.346Z,24.90
2018-05-21T07:24:36.689Z,25.20
2018-05-21T07:27:04.910Z,25.50
2018-05-21T07:29:33.151Z,25.80
2018-05-21T07:32:01.386Z,26.10
2018-05-21T07:34:29.692Z,26.20
2018-05-21T07:36:57.909Z,26.50
2018-05-21T07:39:26.155Z,26.70
2018-05-21T07:41:54.398Z,27.00
2018-05-21T07:44:22.700Z,27.10
2018-05-21T07:46:51.682Z,27.30
2018-05-21T07:49:19.927Z,27.20
2018-05-21T07:51:48.160Z,27.40
2018-05-21T07:54:17.164Z,27.50
2018-05-21T07:56:46.170Z,27.70
2018-05-21T07:59:14.420Z,27.70
2018-05-21T08:01:43.429Z,27.90
2018-05-21T08:04:11.676Z,27.90
2018-05-21T08:06:41.824Z,28.10
2018-05-21T08:09:10.821Z,28.30
2018-05-21T08:11:39.172Z,28.30
2018-05-21T08:14:07.373Z,28.40
2018-05-21T08:16:35.617Z,28.60
2018-05-21T08:19:03.854Z,28.50
2018-05-21T08:21:32.095Z,28.20
2018-05-21T08:24:00.657Z,27.90
2018-05-21T08:26:28.357Z,27.80
2018-05-21T08:28:56.051Z,27.50
2018-05-21T08:31:23.750Z,27.30
2018-05-21T08:33:51.418Z,27.30
2018-05-21T08:36:19.127Z,27.40
2018-05-21T08:38:46.801Z,27.30
2018-05-21T08:41:14.496Z,27.50
2018-05-21T08:43:42.169Z,27.60
2018-05-21T08:46:09.865Z,27.30
2018-05-21T08:48:38.380Z,26.80
2018-05-21T08:51:06.004Z,26.70
2018-05-21T08:53:33.697Z,26.60
2018-05-21T08:56:01.407Z,26.80
2018-05-21T08:58:29.090Z,26.90
2018-05-21T09:00:57.551Z,26.70
2018-05-21T09:03:25.299Z,26.70
2018-05-21T09:05:52.977Z,26.90
2018-05-21T09:08:20.671Z,27.00
2018-05-21T09:10:48.670Z,26.80
2018-05-21T09:13:16.356Z,26.90
2018-05-21T09:15:44.042Z,26.80
2018-05-21T09:18:12.522Z,26.60
2018-05-21T09:20:40.967Z,26.50
2018-05-21T09:23:08.704Z,26.50
2018-05-21T09:25:36.390Z,26.40
2018-05-21T09:28:04.085Z,26.50
2018-05-21T09:30:31.766Z,26.40
2018-05-21T09:33:00.235Z,26.60
2018-05-21T09:35:28.880Z,26.70
2018-05-21T09:37:56.683Z,26.70
2018-05-21T09:40:25.210Z,26.60
2018-05-21T09:42:53.082Z,26.60
2018-05-21T09:45:20.931Z,26.60
2018-05-21T09:47:48.839Z,26.60
2018-05-21T09:50:16.726Z,26.50
2018-05-21T09:52:45.372Z,26.70
2018-05-21T09:55:13.208Z,26.70
2018-05-21T09:57:41.024Z,26.70
2018-05-21T10:00:08.764Z,26.70
2018-05-21T10:05:10.780Z,26.50
2018-05-21T10:07:38.676Z,26.40
2018-05-21T10:10:07.336Z,26.50
2018-05-21T10:12:35.150Z,26.50
2018-05-21T10:15:03.035Z,26.60
2018-05-21T10:17:31.709Z,26.60
2018-05-21T10:19:59.520Z,26.60
2018-05-21T10:22:27.286Z,26.80
2018-05-21T10:24:55.053Z,26.90
2018-05-21T10:27:22.711Z,27.10
2018-05-21T10:29:50.405Z,27.20
2018-05-21T10:32:18.856Z,27.30
2018-05-21T10:34:46.678Z,27.30
2018-05-21T10:37:14.497Z,27.40
2018-05-21T10:39:43.127Z,27.80
2018-05-21T10:42:10.840Z,27.80
2018-05-21T10:44:38.602Z,27.90
2018-05-21T10:47:06.270Z,27.90
2018-05-21T10:49:33.967Z,27.80
2018-05-21T10:52:01.653Z,27.90
2018-05-21T10:54:29.354Z,28.00
2018-05-21T10:56:57.118Z,28.20
2018-05-21T10:59:24.787Z,28.40
2018-05-21T11:01:52.606Z,28.50
2018-05-21T11:04:20.538Z,28.70
2018-05-21T11:06:48.486Z,28.80
2018-05-21T11:09:17.231Z,28.50
2018-05-21T11:11:45.065Z,28.50
2018-05-21T11:14:17.187Z,28.40
2018-05-21T11:16:45.183Z,28.40
2018-05-21T11:19:13.030Z,28.70
2018-05-21T11:21:40.750Z,28.80
2018-05-21T11:24:08.456Z,28.90
2018-05-21T11:26:36.158Z,29.20
2018-05-21T11:29:04.628Z,29.50
2018-05-21T11:31:32.314Z,29.50
2018-05-21T11:34:00.009Z,29.50
2018-05-21T11:36:27.691Z,29.70
2018-05-21T11:38:55.393Z,29.80
2018-05-21T11:41:23.837Z,30.00
2018-05-21T11:43:51.810Z,30.00
2018-05-21T11:46:19.553Z,30.10
2018-05-21T11:48:47.259Z,30.30
2018-05-21T11:51:14.940Z,30.40
2018-05-21T11:53:43.393Z,30.30
2018-05-21T11:56:11.099Z,30.30
2018-05-21T11:58:38.793Z,30.30
2018-05-21T12:01:06.482Z,30.30
2018-05-21T12:03:34.186Z,30.00
2018-05-21T12:06:01.863Z,29.80
2018-05-21T12:08:29.562Z,30.00
2018-05-21T12:10:57.279Z,29.80
2018-05-21T12:13:26.170Z,30.00
2018-05-21T12:15:53.789Z,30.30
2018-05-21T12:18:21.481Z,30.60
2018-05-21T12:20:50.036Z,30.80
2018-05-21T12:23:17.697Z,30.80
2018-05-21T12:25:45.406Z,30.80
2018-05-21T12:28:13.087Z,30.80
2018-05-21T12:30:40.790Z,30.80
2018-05-21T12:33:08.466Z,29.70
2018-05-21T12:35:37.015Z,29.20
2018-05-21T12:38:04.807Z,29.20
2018-05-21T12:40:32.413Z,29.20
2018-05-21T12:43:00.104Z,29.40
2018-05-21T12:45:27.814Z,29.40
2018-05-21T12:47:55.536Z,29.50
2018-05-21T12:50:23.256Z,29.60
2018-05-21T12:52:50.953Z,29.50
2018-05-21T12:55:18.646Z,29.50
2018-05-21T12:57:47.868Z,29.30
2018-05-21T13:00:15.560Z,29.30
2018-05-21T13:02:43.342Z,29.20
2018-05-21T13:05:11.189Z,29.00
2018-05-21T13:07:38.835Z,28.90
2018-05-21T13:10:06.533Z,28.60
2018-05-21T13:12:34.235Z,28.50
2018-05-21T13:15:02.050Z,28.30
2018-05-21T13:17:29.905Z,28.30
2018-05-21T13:22:39.249Z,27.90
2018-05-21T13:25:07.782Z,27.60
2018-05-21T13:27:35.556Z,27.50
2018-05-21T13:30:03.400Z,27.50
2018-05-21T13:32:31.370Z,27.40
2018-05-21T13:34:59.345Z,27.40
2018-05-21T13:37:28.114Z,27.30
2018-05-21T13:39:55.796Z,27.00
2018-05-21T13:42:23.469Z,26.90
2018-05-21T13:44:52.147Z,26.80
2018-05-21T13:47:21.030Z,26.70
2018-05-21T13:49:49.693Z,26.90
2018-05-21T13:52:17.560Z,26.90
2018-05-21T13:54:45.395Z,26.90
2018-05-21T13:57:13.132Z,26.90
2018-05-21T13:59:41.020Z,26.80
2018-05-21T14:02:10.247Z,26.60
2018-05-21T14:04:37.937Z,26.60
2018-05-21T14:07:05.682Z,26.60
2018-05-21T14:09:33.367Z,26.50
2018-05-21T14:12:01.047Z,26.50
2018-05-21T14:14:28.749Z,26.60
2018-05-21T14:16:56.457Z,26.50
2018-05-21T14:19:24.181Z,26.60
2018-05-21T14:21:51.855Z,26.40
2018-05-21T14:24:19.551Z,26.20
2018-05-21T14:26:47.253Z,26.20
2018-05-21T14:29:15.716Z,25.90
2018-05-21T14:31:43.404Z,25.90
2018-05-21T14:34:11.116Z,26.00
2018-05-21T14:36:38.806Z,26.10
2018-05-21T14:39:06.525Z,26.10
2018-05-21T14:41:34.210Z,26.10
2018-05-21T14:44:01.897Z,26.20
2018-05-21T14:46:30.374Z,26.20
2018-05-21T14:48:58.833Z,26.20
2018-05-21T14:51:26.550Z,26.20
2018-05-21T14:53:54.239Z,26.20
2018-05-21T14:56:21.941Z,26.20
2018-05-21T14:58:49.626Z,26.00
2018-05-21T15:01:18.115Z,25.90
2018-05-21T15:03:45.812Z,25.90
2018-05-21T15:06:13.507Z,25.90
2018-05-21T15:08:41.258Z,26.00
2018-05-21T15:11:08.945Z,26.00
2018-05-21T15:13:37.400Z,26.20
2018-05-21T15:16:05.586Z,26.10
2018-05-21T15:18:33.219Z,26.30
2018-05-21T15:21:01.687Z,26.20
2018-05-21T15:23:29.361Z,26.20
2018-05-21T15:25:57.574Z,26.20
2018-05-21T15:28:25.257Z,26.20
2018-05-21T15:30:53.715Z,26.00
2018-05-21T15:33:21.394Z,26.00
2018-05-21T15:35:49.856Z,26.00
2018-05-21T15:38:17.539Z,26.00
2018-05-21T15:40:46.007Z,25.90
2018-05-21T15:43:13.730Z,25.90
2018-05-21T15:45:42.142Z,26.10
2018-05-21T15:48:09.833Z,26.10
2018-05-21T15:50:38.283Z,26.10
2018-05-21T15:53:05.974Z,26.10
2018-05-21T15:55:34.434Z,26.10
2018-05-21T15:58:02.124Z,26.00
2018-05-21T16:00:30.589Z,25.90
2018-05-21T16:02:59.042Z,25.90
2018-05-21T16:05:26.741Z,25.80
2018-05-21T16:07:54.420Z,25.80
2018-05-21T16:10:22.114Z,25.80
2018-05-21T16:12:49.805Z,25.70
2018-05-21T16:15:17.499Z,25.80
2018-05-21T16:17:45.988Z,25.80
2018-05-21T16:20:13.645Z,25.80
2018-05-21T16:22:41.378Z,25.80
2018-05-21T16:25:09.046Z,25.90
2018-05-21T16:30:11.633Z,25.80
2018-05-21T16:32:39.278Z,25.70
2018-05-21T16:35:07.120Z,25.70
2018-05-21T16:37:34.973Z,25.60
2018-05-21T16:40:02.770Z,25.70
2018-05-21T16:42:31.467Z,25.70
2018-05-21T16:44:59.447Z,25.70
2018-05-21T16:47:27.220Z,25.70
2018-05-21T16:49:55.845Z,25.70
2018-05-21T16:52:24.550Z,25.70
2018-05-21T16:54:52.400Z,25.70
2018-05-21T16:57:20.287Z,25.70
2018-05-21T16:59:48.938Z,25.70
2018-05-21T17:02:16.715Z,25.70
2018-05-21T17:04:44.602Z,25.80
2018-05-21T17:07:12.404Z,25.70
2018-05-21T17:09:40.199Z,25.60
2018-05-21T17:12:08.057Z,25.60
2018-05-21T17:14:35.843Z,25.70
2018-05-21T17:17:03.540Z,25.80
2018-05-21T17:19:31.223Z,25.70
2018-05-21T17:21:58.979Z,25.60
2018-05-21T17:24:26.822Z,25.60
2018-05-21T17:26:57.128Z,25.60
2018-05-21T17:29:24.841Z,25.60
2018-05-21T17:31:52.498Z,25.60
2018-05-21T17:34:20.178Z,25.60
2018-05-21T17:36:47.886Z,25.50
2018-05-21T17:39:15.585Z,25.60
2018-05-21T17:41:43.269Z,25.60
2018-05-21T17:44:10.949Z,25.50
2018-05-21T17:46:39.421Z,25.50
2018-05-21T17:49:08.355Z,25.40
2018-05-21T17:51:36.196Z,25.40
2018-05-21T17:54:03.798Z,25.30
2018-05-21T17:56:31.495Z,25.30
2018-05-21T17:58:59.174Z,25.20
2018-05-21T18:01:28.031Z,25.10
2018-05-21T18:03:59.001Z,25.10
2018-05-21T18:06:27.499Z,25.10
2018-05-21T18:08:55.273Z,25.10
2018-05-21T18:11:22.867Z,25.10
2018-05-21T18:13:50.555Z,25.10
2018-05-21T18:16:18.247Z,25.10
2018-05-21T18:18:45.931Z,25.00
2018-05-21T18:21:13.620Z,25.00
2018-05-21T18:23:41.306Z,25.00
2018-05-21T18:26:09.001Z,25.10
2018-05-21T18:28:36.686Z,25.00
2018-05-21T18:31:04.378Z,25.00
2018-05-21T18:33:32.059Z,24.90
2018-05-21T18:35:59.827Z,24.90
2018-05-21T18:38:27.448Z,24.90
2018-05-21T18:40:55.130Z,24.80
2018-05-21T18:43:22.807Z,24.80
2018-05-21T18:45:50.509Z,24.70
2018-05-21T18:48:18.189Z,24.70
2018-05-21T18:50:45.894Z,24.60
2018-05-21T18:53:13.576Z,24.50
2018-05-21T18:55:42.097Z,24.50
2018-05-21T18:58:09.779Z,24.40
2018-05-21T19:00:37.490Z,24.40
2018-05-21T19:03:05.943Z,24.40
2018-05-21T19:05:33.641Z,24.40
2018-05-21T19:08:02.095Z,24.30
2018-05-21T19:10:29.800Z,24.30
2018-05-21T19:12:57.493Z,24.30
2018-05-21T19:15:25.277Z,24.30
2018-05-21T19:17:52.926Z,24.10
2018-05-21T19:20:20.641Z,24.10
2018-05-21T19:22:49.100Z,24.10
2018-05-21T19:25:16.789Z,24.00
2018-05-21T19:27:44.490Z,24.00
2018-05-21T19:30:12.178Z,24.00
2018-05-21T19:32:39.869Z,23.90
2018-05-21T19:35:08.321Z,23.90
2018-05-21T19:37:36.030Z,23.90
2018-05-21T19:40:03.745Z,23.90
2018-05-21T19:42:31.446Z,23.80
2018-05-21T19:44:59.137Z,23.80
2018-05-21T19:47:26.935Z,23.80
2018-05-21T19:49:54.593Z,23.80
2018-05-21T19:52:22.320Z,23.70
2018-05-21T19:54:50.766Z,23.70
2018-05-21T19:57:19.247Z,23.60
2018-05-21T19:59:46.933Z,23.50
2018-05-21T20:02:14.618Z,23.60
2018-05-21T20:04:42.318Z,23.60
2018-05-21T20:07:10.022Z,23.50
2018-05-21T20:09:37.732Z,23.50
2018-05-21T20:12:05.497Z,23.50
2018-05-21T20:14:33.249Z,23.50
2018-05-21T20:17:00.956Z,23.30
2018-05-21T20:19:29.406Z,23.30
2018-05-21T20:21:57.097Z,23.30
2018-05-21T20:24:25.591Z,23.20
2018-05-21T20:26:53.300Z,23.20
2018-05-21T20:29:21.087Z,23.20
2018-05-21T20:31:48.834Z,23.20
2018-05-21T20:34:17.265Z,22.90
2018-05-21T20:36:45.133Z,23.00
2018-05-21T20:39:12.969Z,22.90
2018-05-21T20:41:40.685Z,22.90
2018-05-21T20:44:09.114Z,22.90
2018-05-21T20:46:36.808Z,22.80
2018-05-21T20:49:04.502Z,22.70
2018-05-21T20:51:32.196Z,22.80
2018-05-21T20:53:59.892Z,22.80
2018-05-21T20:56:34.234Z,22.50
2018-05-21T20:59:01.931Z,22.50
2018-05-21T21:01:29.620Z,22.50
2018-05-21T21:03:57.314Z,22.50
2018-05-21T21:06:25.000Z,22.50
2018-05-21T21:08:52.694Z,22.40
2018-05-21T21:11:20.394Z,22.40
2018-05-21T21:13:48.114Z,22.40
2018-05-21T21:16:15.806Z,22.20
2018-05-21T21:18:44.466Z,22.10
2018-05-21T21:21:12.144Z,22.10
2018-05-21T21:23:41.735Z,22.00
2018-05-21T21:26:09.433Z,22.00
2018-05-21T21:28:37.906Z,22.00
2018-05-21T21:31:06.377Z,22.00
2018-05-21T21:33:34.064Z,22.00
2018-05-21T21:36:01.947Z,22.00
2018-05-21T21:38:29.711Z,21.90
2018-05-21T21:41:02.019Z,21.80
2018-05-21T21:43:29.718Z,21.80
2018-05-21T21:45:57.430Z,21.80
2018-05-21T21:48:25.111Z,21.70
2018-05-21T21:50:52.810Z,21.70
2018-05-21T21:53:20.527Z,21.70
2018-05-21T21:55:48.927Z,21.70
2018-05-21T21:58:16.609Z,21.70
2018-05-21T22:00:45.077Z,21.50
2018-05-21T22:03:12.776Z,21.50
2018-05-21T22:05:40.475Z,21.50
2018-05-21T22:08:08.176Z,21.50
2018-05-21T22:10:36.638Z,21.40
2018-05-21T22:13:04.317Z,21.40
2018-05-21T22:15:31.995Z,21.40
2018-05-21T22:18:00.463Z,21.50
2018-05-21T22:20:28.913Z,21.50
2018-05-21T22:22:56.602Z,21.50
2018-05-21T22:25:25.055Z,21.50
2018-05-21T22:27:52.758Z,21.50
2018-05-21T22:30:21.209Z,21.40
2018-05-21T22:32:48.911Z,21.40
2018-05-21T22:35:16.597Z,21.40
2018-05-21T22:37:44.297Z,21.50
2018-05-21T22:40:11.982Z,21.50
2018-05-21T22:42:40.462Z,21.50
2018-05-21T22:45:08.151Z,21.50
2018-05-21T22:47:36.606Z,21.30
2018-05-21T22:50:05.062Z,21.20
2018-05-21T22:52:32.762Z,21.20
2018-05-21T22:55:01.211Z,21.00
2018-05-21T22:57:28.913Z,21.00
2018-05-21T22:59:56.590Z,21.00
2018-05-21T23:02:24.305Z,20.90
2018-05-21T23:04:51.982Z,21.00
2018-05-21T23:07:19.673Z,21.00
2018-05-21T23:09:47.359Z,21.00
2018-05-21T23:12:15.057Z,20.90
2018-05-21T23:14:42.738Z,20.90
2018-05-21T23:17:11.210Z,20.80
2018-05-21T23:19:38.908Z,20.80
2018-05-21T23:22:07.363Z,20.70
2018-05-21T23:24:35.822Z,20.80
2018-05-21T23:27:03.524Z,20.80
2018-05-21T23:29:31.993Z,20.80
2018-05-21T23:31:59.686Z,20.70
2018-05-21T23:34:27.375Z,20.80
2018-05-21T23:36:55.055Z,20.80
2018-05-21T23:39:22.763Z,20.70
2018-05-21T23:41:50.450Z,20.70
2018-05-21T23:44:19.069Z,20.60
2018-05-21T23:46:46.755Z,20.60
2018-05-21T23:49:15.215Z,20.60
2018-05-21T23:51:42.906Z,20.60
2018-05-21T23:54:11.370Z,20.50
2018-05-21T23:56:39.060Z,20.50
2018-05-21T23:59:06.758Z,20.40
